EGPN

Dundee Airport

Dundee, United Kingdom
METAR EGPN 231920Z 31013KT 9999 FEW040 10/03 Q1027
Observed Flight Rules
Sep-23 @ 19:20 UTC (9 hours ago) Visual Flight Rules
Wind Visibility Clouds
310° at 13 knots 10,000+ meters
  • Few at 4,000' AGL
Temperatures Readings
Current 10°C / 50°F
Dewpoint 3°C / 37°F
Humidity 62%
Altimeter 30.32" Hg
Pressure 1027 hPa
Elevation 4
METAR EGPN 231920Z 31013KT 9999 FEW040 10/03 Q1027
Observed Flight Rules
Sep-23 @ 19:20 UTC
(9 hours ago)
VFR
Wind Visibility
310° at 13 knots 10,000+ meters
Clouds
  • Few at 4,000' AGL
Temperature Dewpoint
10°C / 50°F 3°C / 37°F
Humidity Altimeter Pressure
62% 30.32" Hg 1027 hPa